La Habra, California
Current Conditions -  °F | °C
As of 10:53 PM on Friday 28 Nov 2014 (Local Time) from KFUL Reporting Station
Clear Clear  
Wind Chill: 56°   Ceiling: Unl
Heat Index: 56°   Visibility: 10mi
Dew Point: 38°   Wind: 0mph
Humidity: 51%   Direction: NA
Pressure: 29.89"   Gusts: NA
Location:  33.93°N, 117.94°W
Report Text: KFUL 290653Z 00000KT 10SM CLR 13/03 A2989 RMK AO2 SLP120 T01330033
Loading
Personal Weather Stations






























Interactive Weather Map New forecast layout! Learn more

10-Day Weather Forecast

Advertisements
Track Severe Weather on mobile